Wetterdaten: Woche 04.05.15 - 10.05.15 (KW19)
Datum Zeit Temperatur Luftfeuchte Luftdruck Niederschlag Windrichtung Sonnenschein Solar Wind
04.05.2015 00:00 14,7 C 98 % 1007,9 hPa 0,0 l/m SW 0,00 h 0 W/m 9,8 km/h (2 Bft)
04.05.2015 01:00 14,3 C 98 % 1008,2 hPa 0,0 l/m SW 0,00 h 0 W/m 12,6 km/h (3 Bft)
04.05.2015 02:00 14,3 C 99 % 1008,6 hPa 0,0 l/m W-SW 0,00 h 0 W/m 17,8 km/h (3 Bft)
04.05.2015 03:00 14,2 C 99 % 1009,1 hPa 0,0 l/m SW 0,00 h 0 W/m 14,2 km/h (3 Bft)
04.05.2015 04:00 13,8 C 99 % 1009,1 hPa 0,0 l/m SW 0,00 h 0 W/m 10,5 km/h (2 Bft)
04.05.2015 05:00 13,5 C 99 % 1009,3 hPa 0,0 l/m SW 0,00 h 0 W/m 9,0 km/h (2 Bft)
04.05.2015 06:00 13,4 C 99 % 1009,4 hPa 0,2 l/m SW 0,00 h 10 W/m 17,2 km/h (3 Bft)
04.05.2015 07:00 13,5 C 99 % 1009,9 hPa 0,0 l/m SW 0,00 h 41 W/m 15,4 km/h (3 Bft)
04.05.2015 08:00 14,0 C 99 % 1010,2 hPa 0,0 l/m SW 0,08 h 115 W/m 15,7 km/h (3 Bft)
04.05.2015 09:00 15,0 C 97 % 1010,0 hPa 0,0 l/m S-SW 0,00 h 204 W/m 12,8 km/h (3 Bft)
04.05.2015 10:00 16,1 C 93 % 1009,8 hPa 0,0 l/m W-SW 0,08 h 227 W/m 13,7 km/h (3 Bft)
04.05.2015 11:00 16,4 C 91 % 1009,7 hPa 0,0 l/m SW 0,00 h 158 W/m 10,5 km/h (2 Bft)
04.05.2015 12:00 16,4 C 91 % 1009,9 hPa 0,0 l/m W-SW 0,00 h 142 W/m 10,6 km/h (2 Bft)
04.05.2015 13:00 16,5 C 91 % 1010,0 hPa 0,2 l/m W-SW 0,00 h 222 W/m 6,6 km/h (2 Bft)
04.05.2015 14:00 17,8 C 85 % 1009,8 hPa 0,0 l/m SW 0,42 h 459 W/m 7,8 km/h (2 Bft)
04.05.2015 15:00 18,7 C 82 % 1009,0 hPa 0,0 l/m S-SW 0,08 h 282 W/m 12,2 km/h (2 Bft)
04.05.2015 16:00 18,8 C 79 % 1008,4 hPa 0,0 l/m SW 0,42 h 295 W/m 10,2 km/h (2 Bft)
04.05.2015 17:00 19,3 C 76 % 1008,4 hPa 0,0 l/m SW 0,17 h 217 W/m 8,5 km/h (2 Bft)
04.05.2015 18:00 19,2 C 76 % 1007,7 hPa 0,2 l/m S-SW 0,17 h 161 W/m 4,3 km/h (1 Bft)
04.05.2015 19:00 19,0 C 78 % 1006,8 hPa 0,0 l/m SO 0,00 h 67 W/m 5,6 km/h (1 Bft)
04.05.2015 20:00 18,1 C 82 % 1006,4 hPa 0,0 l/m SO 0,00 h 17 W/m 1,6 km/h (1 Bft)
04.05.2015 21:00 17,2 C 87 % 1005,9 hPa 0,0 l/m N 0,00 h 0 W/m 0,1 km/h (0 Bft)
04.05.2015 22:00 16,7 C 89 % 1005,6 hPa 0,0 l/m N 0,00 h 0 W/m 0,4 km/h (0 Bft)
04.05.2015 23:00 16,6 C 89 % 1005,0 hPa 0,0 l/m N 0,00 h 0 W/m 0,7 km/h (0 Bft)
05.05.2015 00:00 15,8 C 90 % 1004,1 hPa 0,0 l/m N 0,00 h 0 W/m 0,0 km/h (0 Bft)
05.05.2015 01:00 15,1 C 90 % 1003,3 hPa 0,0 l/m N 0,00 h 0 W/m 0,0 km/h (0 Bft)
05.05.2015 02:00 14,3 C 92 % 1002,6 hPa 0,0 l/m N 0,00 h 0 W/m 0,3 km/h (0 Bft)
05.05.2015 03:00 13,8 C 93 % 1002,5 hPa 0,0 l/m N 0,00 h 0 W/m 0,4 km/h (0 Bft)
05.05.2015 04:00 13,7 C 94 % 1002,4 hPa 0,0 l/m N 0,00 h 0 W/m 0,7 km/h (0 Bft)
05.05.2015 05:00 13,9 C 92 % 1002,2 hPa 0,0 l/m N 0,00 h 0 W/m 1,3 km/h (1 Bft)
05.05.2015 06:00 14,2 C 89 % 1001,9 hPa 0,0 l/m N 0,00 h 16 W/m 0,5 km/h (0 Bft)
05.05.2015 07:00 14,5 C 88 % 1001,9 hPa 0,0 l/m S-SO 0,00 h 79 W/m 3,1 km/h (1 Bft)
05.05.2015 08:00 18,2 C 69 % 1002,3 hPa 0,0 l/m SW 0,25 h 171 W/m 18,4 km/h (3 Bft)
05.05.2015 09:00 20,0 C 60 % 1002,9 hPa 0,0 l/m SW 0,08 h 178 W/m 20,3 km/h (4 Bft)
05.05.2015 10:00 20,6 C 66 % 1003,3 hPa 0,0 l/m SW 0,00 h 169 W/m 9,7 km/h (2 Bft)
05.05.2015 11:00 21,0 C 67 % 1004,2 hPa 0,0 l/m SW 0,00 h 222 W/m 7,9 km/h (2 Bft)
05.05.2015 12:00 22,6 C 57 % 1004,5 hPa 0,0 l/m W-SW 0,17 h 332 W/m 16,8 km/h (3 Bft)
05.05.2015 13:00 23,4 C 52 % 1004,9 hPa 0,0 l/m W 0,50 h 510 W/m 26,3 km/h (4 Bft)
05.05.2015 14:00 22,2 C 55 % 1005,3 hPa 0,0 l/m W 0,00 h 229 W/m 24,0 km/h (4 Bft)
05.05.2015 15:00 21,2 C 58 % 1005,9 hPa 0,0 l/m W-SW 0,00 h 165 W/m 17,6 km/h (3 Bft)
05.05.2015 16:00 20,9 C 61 % 1006,2 hPa 0,0 l/m W-SW 0,08 h 219 W/m 13,8 km/h (3 Bft)
05.05.2015 17:00 20,2 C 65 % 1006,4 hPa 0,0 l/m W-NW 0,17 h 170 W/m 10,5 km/h (2 Bft)
05.05.2015 18:00 18,1 C 73 % 1007,3 hPa 0,0 l/m W-NW 0,00 h 52 W/m 14,5 km/h (3 Bft)
05.05.2015 19:00 15,4 C 83 % 1008,5 hPa 2,0 l/m W-NW 0,00 h 19 W/m 16,4 km/h (3 Bft)
05.05.2015 20:00 13,9 C 90 % 1009,3 hPa 1,0 l/m W 0,00 h 5 W/m 10,2 km/h (2 Bft)
05.05.2015 21:00 13,3 C 93 % 1010,2 hPa 1,6 l/m SW 0,00 h 0 W/m 5,5 km/h (1 Bft)
05.05.2015 22:00 13,3 C 95 % 1010,9 hPa 1,2 l/m SW 0,00 h 0 W/m 11,0 km/h (2 Bft)
05.05.2015 23:00 12,9 C 96 % 1010,9 hPa 0,8 l/m S-SW 0,00 h 0 W/m 12,6 km/h (3 Bft)
06.05.2015 00:00 12,5 C 97 % 1011,4 hPa 2,6 l/m SW 0,00 h 0 W/m 10,5 km/h (2 Bft)
06.05.2015 01:00 12,2 C 97 % 1011,0 hPa 1,4 l/m W-SW 0,00 h 0 W/m 4,9 km/h (1 Bft)
06.05.2015 02:00 11,9 C 97 % 1011,5 hPa 2,4 l/m W-SW 0,00 h 0 W/m 3,2 km/h (1 Bft)
06.05.2015 03:00 11,5 C 97 % 1011,2 hPa 3,2 l/m W-SW 0,00 h 0 W/m 2,0 km/h (1 Bft)
06.05.2015 04:00 11,4 C 97 % 1011,4 hPa 2,2 l/m SW 0,00 h 0 W/m 6,3 km/h (2 Bft)
06.05.2015 05:00 11,4 C 97 % 1011,2 hPa 0,6 l/m SW 0,00 h 0 W/m 0,4 km/h (0 Bft)
06.05.2015 06:00 11,3 C 98 % 1011,6 hPa 2,2 l/m W-NW 0,00 h 7 W/m 11,6 km/h (2 Bft)
06.05.2015 07:00 10,8 C 98 % 1012,8 hPa 2,6 l/m W-NW 0,00 h 14 W/m 15,0 km/h (3 Bft)
06.05.2015 08:00 9,5 C 96 % 1013,8 hPa 1,2 l/m W-NW 0,00 h 39 W/m 15,4 km/h (3 Bft)
06.05.2015 09:00 9,5 C 96 % 1014,3 hPa 0,8 l/m W 0,00 h 60 W/m 12,5 km/h (3 Bft)
06.05.2015 10:00 9,6 C 95 % 1014,3 hPa 0,2 l/m SW 0,00 h 90 W/m 9,4 km/h (2 Bft)
06.05.2015 11:00 9,5 C 94 % 1015,4 hPa 0,0 l/m SW 0,00 h 116 W/m 20,0 km/h (4 Bft)
06.05.2015 12:00 10,4 C 94 % 1015,7 hPa 0,0 l/m SW 0,17 h 370 W/m 18,5 km/h (3 Bft)
06.05.2015 13:00 13,0 C 81 % 1015,2 hPa 0,0 l/m S-SW 0,58 h 628 W/m 20,5 km/h (4 Bft)
06.05.2015 14:00 14,3 C 76 % 1015,1 hPa 0,0 l/m SW 0,75 h 790 W/m 18,0 km/h (3 Bft)
06.05.2015 15:00 16,0 C 70 % 1014,7 hPa 0,0 l/m SW 1,00 h 833 W/m 19,0 km/h (3 Bft)
06.05.2015 16:00 16,5 C 66 % 1014,2 hPa 0,0 l/m SW 0,75 h 544 W/m 14,9 km/h (3 Bft)
06.05.2015 17:00 17,5 C 59 % 1013,6 hPa 0,0 l/m SW 1,00 h 519 W/m 18,4 km/h (3 Bft)
06.05.2015 18:00 17,2 C 57 % 1013,5 hPa 0,0 l/m SW 1,00 h 343 W/m 15,0 km/h (3 Bft)
06.05.2015 19:00 15,9 C 62 % 1013,8 hPa 0,0 l/m SW 0,33 h 77 W/m 8,9 km/h (2 Bft)
06.05.2015 20:00 14,5 C 69 % 1014,4 hPa 0,0 l/m W-NW 0,00 h 8 W/m 9,0 km/h (2 Bft)
06.05.2015 21:00 13,4 C 77 % 1015,3 hPa 0,6 l/m W-NW 0,00 h 0 W/m 11,3 km/h (2 Bft)
06.05.2015 22:00 11,7 C 82 % 1015,9 hPa 0,0 l/m W 0,00 h 0 W/m 12,9 km/h (3 Bft)
06.05.2015 23:00 11,4 C 78 % 1016,6 hPa 0,0 l/m W 0,00 h 0 W/m 13,6 km/h (3 Bft)
07.05.2015 00:00 11,6 C 76 % 1017,3 hPa 0,0 l/m W 0,00 h 0 W/m 10,6 km/h (2 Bft)
07.05.2015 01:00 11,4 C 78 % 1017,7 hPa 0,0 l/m W 0,00 h 0 W/m 6,7 km/h (2 Bft)
07.05.2015 02:00 11,1 C 79 % 1017,6 hPa 0,0 l/m W 0,00 h 0 W/m 6,4 km/h (2 Bft)
07.05.2015 03:00 10,6 C 80 % 1017,7 hPa 0,0 l/m W 0,00 h 0 W/m 2,4 km/h (1 Bft)
07.05.2015 04:00 9,8 C 84 % 1017,8 hPa 0,0 l/m W 0,00 h 0 W/m 1,9 km/h (1 Bft)
07.05.2015 05:00 8,9 C 87 % 1017,8 hPa 0,0 l/m N 0,00 h 5 W/m 1,5 km/h (1 Bft)
07.05.2015 06:00 8,2 C 87 % 1018,0 hPa 0,0 l/m W 0,00 h 27 W/m 0,7 km/h (0 Bft)
07.05.2015 07:00 8,4 C 91 % 1018,5 hPa 0,0 l/m W 0,08 h 88 W/m 4,0 km/h (1 Bft)
07.05.2015 08:00 10,3 C 86 % 1018,8 hPa 0,0 l/m W-SW 0,25 h 195 W/m 8,6 km/h (2 Bft)
07.05.2015 09:00 11,8 C 71 % 1019,0 hPa 0,0 l/m W 0,00 h 169 W/m 15,2 km/h (3 Bft)
07.05.2015 10:00 12,3 C 63 % 1019,1 hPa 0,0 l/m W-NW 0,00 h 233 W/m 14,5 km/h (3 Bft)
07.05.2015 11:00 13,4 C 62 % 1018,8 hPa 0,0 l/m W-NW 0,17 h 426 W/m 12,0 km/h (2 Bft)
07.05.2015 12:00 14,7 C 61 % 1018,4 hPa 0,0 l/m SW 0,42 h 564 W/m 16,2 km/h (3 Bft)
07.05.2015 13:00 16,5 C 57 % 1017,7 hPa 0,0 l/m W-SW 0,92 h 905 W/m 21,0 km/h (4 Bft)
07.05.2015 14:00 17,4 C 52 % 1017,3 hPa 0,0 l/m W 0,75 h 844 W/m 16,1 km/h (3 Bft)
07.05.2015 15:00 17,9 C 49 % 1016,8 hPa 0,0 l/m W-SW 0,92 h 850 W/m 15,0 km/h (3 Bft)
07.05.2015 16:00 18,4 C 48 % 1016,4 hPa 0,0 l/m SW 0,83 h 639 W/m 10,5 km/h (2 Bft)
07.05.2015 17:00 18,6 C 45 % 1016,0 hPa 0,0 l/m W 1,00 h 530 W/m 9,8 km/h (2 Bft)
07.05.2015 18:00 18,1 C 47 % 1015,8 hPa 0,0 l/m S-SW 1,00 h 344 W/m 7,5 km/h (2 Bft)
07.05.2015 19:00 16,5 C 53 % 1015,8 hPa 0,0 l/m S-SW 0,42 h 94 W/m 1,3 km/h (1 Bft)
07.05.2015 20:00 14,2 C 68 % 1016,0 hPa 0,0 l/m N 0,00 h 17 W/m 0,3 km/h (0 Bft)
07.05.2015 21:00 12,8 C 70 % 1016,2 hPa 0,0 l/m S-SW 0,00 h 0 W/m 0,7 km/h (0 Bft)
07.05.2015 22:00 11,5 C 74 % 1016,3 hPa 0,0 l/m S-SW 0,00 h 0 W/m 1,2 km/h (1 Bft)
07.05.2015 23:00 10,3 C 79 % 1016,1 hPa 0,0 l/m SW 0,00 h 0 W/m 3,1 km/h (1 Bft)
08.05.2015 00:00 9,7 C 81 % 1016,0 hPa 0,0 l/m W-SW 0,00 h 0 W/m 3,7 km/h (1 Bft)
08.05.2015 01:00 9,3 C 82 % 1015,9 hPa 0,0 l/m W 0,00 h 0 W/m 6,4 km/h (2 Bft)
08.05.2015 02:00 9,5 C 81 % 1015,4 hPa 0,0 l/m W-NW 0,00 h 0 W/m 5,1 km/h (1 Bft)
08.05.2015 03:00 9,2 C 83 % 1015,1 hPa 0,0 l/m W-NW 0,00 h 0 W/m 3,9 km/h (1 Bft)
08.05.2015 04:00 9,0 C 84 % 1014,8 hPa 0,0 l/m W-NW 0,00 h 0 W/m 1,2 km/h (1 Bft)
08.05.2015 05:00 8,6 C 83 % 1014,7 hPa 0,0 l/m W-NW 0,00 h 0 W/m 0,7 km/h (0 Bft)
08.05.2015 06:00 7,9 C 87 % 1014,6 hPa 0,0 l/m N 0,00 h 24 W/m 0,0 km/h (0 Bft)
08.05.2015 07:00 8,3 C 90 % 1014,5 hPa 0,0 l/m N 0,50 h 149 W/m 0,0 km/h (0 Bft)
08.05.2015 08:00 11,3 C 82 % 1014,3 hPa 0,0 l/m W-NW 1,00 h 331 W/m 0,0 km/h (0 Bft)
08.05.2015 09:00 14,5 C 71 % 1014,0 hPa 0,0 l/m W-NW 1,00 h 508 W/m 7,5 km/h (2 Bft)
08.05.2015 10:00 16,8 C 60 % 1013,3 hPa 0,0 l/m S 1,00 h 520 W/m 8,3 km/h (2 Bft)
08.05.2015 11:00 17,7 C 60 % 1013,0 hPa 0,0 l/m S-SW 0,83 h 585 W/m 8,7 km/h (2 Bft)
08.05.2015 12:00 19,1 C 55 % 1012,6 hPa 0,0 l/m SW 0,92 h 697 W/m 10,2 km/h (2 Bft)
08.05.2015 13:00 21,6 C 43 % 1012,1 hPa 0,0 l/m SW 1,00 h 831 W/m 13,8 km/h (3 Bft)
08.05.2015 14:00 23,3 C 37 % 1011,7 hPa 0,0 l/m W 1,00 h 817 W/m 11,4 km/h (2 Bft)
08.05.2015 15:00 24,4 C 35 % 1011,3 hPa 0,0 l/m SW 1,00 h 764 W/m 10,4 km/h (2 Bft)
08.05.2015 16:00 24,6 C 35 % 1010,8 hPa 0,0 l/m N 1,00 h 566 W/m 11,8 km/h (2 Bft)
08.05.2015 17:00 24,2 C 36 % 1010,6 hPa 0,0 l/m NW 1,00 h 455 W/m 12,0 km/h (2 Bft)
08.05.2015 18:00 23,6 C 38 % 1010,6 hPa 0,0 l/m NO 0,50 h 189 W/m 9,1 km/h (2 Bft)
08.05.2015 19:00 19,2 C 58 % 1011,6 hPa 0,4 l/m W 0,00 h 9 W/m 22,1 km/h (4 Bft)
08.05.2015 20:00 14,3 C 84 % 1012,9 hPa 1,4 l/m SW 0,00 h 0 W/m 13,4 km/h (3 Bft)
08.05.2015 21:00 13,1 C 89 % 1013,7 hPa 0,0 l/m SW 0,00 h 0 W/m 14,9 km/h (3 Bft)
08.05.2015 22:00 13,1 C 89 % 1014,8 hPa 0,0 l/m W-SW 0,00 h 0 W/m 13,1 km/h (3 Bft)
08.05.2015 23:00 13,0 C 87 % 1015,5 hPa 0,0 l/m W-SW 0,00 h 0 W/m 4,8 km/h (1 Bft)
09.05.2015 00:00 12,9 C 90 % 1015,6 hPa 0,2 l/m W-SW 0,00 h 0 W/m 4,5 km/h (1 Bft)
09.05.2015 01:00 12,3 C 93 % 1015,6 hPa 0,0 l/m SW 0,00 h 0 W/m 12,1 km/h (2 Bft)
09.05.2015 02:00 11,9 C 95 % 1015,8 hPa 0,0 l/m SW 0,00 h 0 W/m 8,7 km/h (2 Bft)
09.05.2015 03:00 11,9 C 96 % 1016,3 hPa 0,0 l/m W-SW 0,00 h 0 W/m 9,1 km/h (2 Bft)
09.05.2015 04:00 11,8 C 96 % 1016,5 hPa 0,0 l/m W-SW 0,00 h 0 W/m 10,2 km/h (2 Bft)
09.05.2015 05:00 11,7 C 95 % 1016,9 hPa 0,0 l/m SW 0,00 h 0 W/m 13,4 km/h (3 Bft)
09.05.2015 06:00 11,7 C 94 % 1017,2 hPa 0,0 l/m SW 0,00 h 18 W/m 13,4 km/h (3 Bft)
09.05.2015 07:00 11,9 C 95 % 1017,7 hPa 0,0 l/m SW 0,00 h 58 W/m 12,9 km/h (3 Bft)
09.05.2015 08:00 12,4 C 94 % 1018,2 hPa 0,0 l/m SW 0,00 h 93 W/m 14,0 km/h (3 Bft)
09.05.2015 09:00 13,3 C 91 % 1018,4 hPa 0,0 l/m SW 0,00 h 184 W/m 14,4 km/h (3 Bft)
09.05.2015 10:00 14,2 C 87 % 1018,7 hPa 0,0 l/m W-SW 0,00 h 147 W/m 20,5 km/h (4 Bft)
09.05.2015 11:00 14,7 C 85 % 1018,8 hPa 0,0 l/m W-SW 0,08 h 269 W/m 19,3 km/h (3 Bft)
09.05.2015 12:00 16,1 C 80 % 1018,4 hPa 0,0 l/m S-SW 0,25 h 325 W/m 20,6 km/h (4 Bft)
09.05.2015 13:00 17,3 C 73 % 1018,2 hPa 0,0 l/m W-SW 0,08 h 378 W/m 20,9 km/h (4 Bft)
09.05.2015 14:00 18,2 C 68 % 1018,4 hPa 0,0 l/m W 0,08 h 355 W/m 22,7 km/h (4 Bft)
09.05.2015 15:00 18,4 C 66 % 1018,4 hPa 0,0 l/m W-SW 0,08 h 322 W/m 21,8 km/h (4 Bft)
09.05.2015 16:00 18,7 C 64 % 1018,4 hPa 0,0 l/m W-SW 0,17 h 262 W/m 21,7 km/h (4 Bft)
09.05.2015 17:00 18,4 C 65 % 1018,6 hPa 0,0 l/m W 0,33 h 269 W/m 16,5 km/h (3 Bft)
09.05.2015 18:00 18,7 C 61 % 1018,8 hPa 0,0 l/m W 0,42 h 204 W/m 16,4 km/h (3 Bft)
09.05.2015 19:00 18,3 C 61 % 1019,2 hPa 0,0 l/m W 0,25 h 65 W/m 13,2 km/h (3 Bft)
09.05.2015 20:00 16,6 C 61 % 1019,6 hPa 0,0 l/m W-NW 0,08 h 15 W/m 8,6 km/h (2 Bft)
09.05.2015 21:00 14,9 C 67 % 1020,5 hPa 0,0 l/m W-NW 0,00 h 0 W/m 10,7 km/h (2 Bft)
09.05.2015 22:00 14,1 C 69 % 1021,4 hPa 0,0 l/m W-NW 0,00 h 0 W/m 14,2 km/h (3 Bft)
09.05.2015 23:00 13,9 C 71 % 1022,3 hPa 0,0 l/m W-NW 0,00 h 0 W/m 14,1 km/h (3 Bft)
10.05.2015 00:00 14,1 C 72 % 1022,9 hPa 0,0 l/m W 0,00 h 0 W/m 16,0 km/h (3 Bft)
10.05.2015 01:00 13,3 C 75 % 1023,3 hPa 0,0 l/m W 0,00 h 0 W/m 12,0 km/h (2 Bft)
10.05.2015 02:00 12,2 C 79 % 1023,6 hPa 0,0 l/m W 0,00 h 0 W/m 4,0 km/h (1 Bft)
10.05.2015 03:00 11,1 C 82 % 1023,8 hPa 0,0 l/m N 0,00 h 0 W/m 1,1 km/h (0 Bft)
10.05.2015 04:00 9,8 C 84 % 1024,0 hPa 0,0 l/m W 0,00 h 0 W/m 1,3 km/h (1 Bft)
10.05.2015 05:00 8,8 C 86 % 1024,3 hPa 0,0 l/m N 0,00 h 5 W/m 0,0 km/h (0 Bft)
10.05.2015 06:00 8,3 C 89 % 1024,7 hPa 0,0 l/m W 0,00 h 29 W/m 2,4 km/h (1 Bft)
10.05.2015 07:00 11,2 C 87 % 1025,2 hPa 0,0 l/m W 0,75 h 165 W/m 5,6 km/h (1 Bft)
10.05.2015 08:00 13,7 C 76 % 1025,4 hPa 0,0 l/m W 1,00 h 300 W/m 11,7 km/h (2 Bft)
10.05.2015 09:00 14,7 C 68 % 1025,5 hPa 0,0 l/m W-NW 1,00 h 422 W/m 14,2 km/h (3 Bft)
10.05.2015 10:00 15,2 C 64 % 1025,7 hPa 0,0 l/m W-NW 0,58 h 428 W/m 12,4 km/h (3 Bft)
10.05.2015 11:00 16,6 C 59 % 1025,5 hPa 0,0 l/m W-NW 0,75 h 649 W/m 16,0 km/h (3 Bft)
10.05.2015 12:00 17,2 C 57 % 1025,3 hPa 0,0 l/m W-SW 0,42 h 530 W/m 13,4 km/h (3 Bft)
10.05.2015 13:00 17,5 C 55 % 1024,9 hPa 0,0 l/m W-SW 0,17 h 360 W/m 9,1 km/h (2 Bft)
10.05.2015 14:00 19,0 C 51 % 1024,7 hPa 0,0 l/m SW 0,58 h 660 W/m 13,5 km/h (3 Bft)
10.05.2015 15:00 20,0 C 48 % 1024,2 hPa 0,0 l/m SW 0,50 h 503 W/m 9,9 km/h (2 Bft)
10.05.2015 16:00 20,1 C 47 % 1023,9 hPa 0,0 l/m W-SW 0,58 h 489 W/m 10,5 km/h (2 Bft)
10.05.2015 17:00 20,7 C 46 % 1023,7 hPa 0,0 l/m SW 1,00 h 515 W/m 9,1 km/h (2 Bft)
10.05.2015 18:00 20,7 C 43 % 1023,6 hPa 0,0 l/m NW 1,00 h 343 W/m 7,0 km/h (2 Bft)
10.05.2015 19:00 18,9 C 53 % 1023,6 hPa 0,0 l/m NW 0,58 h 117 W/m 3,6 km/h (1 Bft)
10.05.2015 20:00 16,3 C 66 % 1023,8 hPa 0,0 l/m N 0,08 h 14 W/m 0,0 km/h (0 Bft)
10.05.2015 21:00 14,3 C 71 % 1024,3 hPa 0,0 l/m N 0,00 h 0 W/m 0,8 km/h (0 Bft)
10.05.2015 22:00 13,3 C 74 % 1024,5 hPa 0,0 l/m N 0,00 h 0 W/m 0,0 km/h (0 Bft)
10.05.2015 23:00 12,0 C 77 % 1024,7 hPa 0,0 l/m W-NW 0,00 h 0 W/m 1,1 km/h (0 Bft)
Min-Datum _ 08.05.15 08.05.15 05.05.15 - - - - 04.05.15
_ Min-Zeit 06:45 14:45 06:35 - - - - 05:40
Minimum _ 7,7 C 34 % 1001,7 hPa - - - - 0,0 km/h (0 Bft)
Max-Datum _ 08.05.15 04.05.15 10.05.15 06.05.15 - 08.05.15 07.05.15 08.05.15
_ Max-Zeit 16:00 01:55 10:25 03:10 - 15:40 13:00 19:45
Maximum _ 24,9 C 99 % 1025,8 hPa 3,2 l/m - 0,17 h 1063 W/m 35,4 km/h
W-NW (5 Bft)
Durchschnitt _ 14,9 C 77 % 1014,4 hPa #29,2 l/m SW #36:35 h 287 W/m 9,9 km/h (2 Bft)